createdAt,value
2017-08-16T00:00:51.051Z,12.73
2017-08-16T00:03:17.723Z,10.00
2017-08-16T00:05:44.531Z,10.02
2017-08-16T00:08:11.279Z,10.35
2017-08-16T00:10:38.015Z,11.38
2017-08-16T00:13:04.754Z,10.82
2017-08-16T00:15:31.421Z,10.52
2017-08-16T00:17:58.072Z,10.70
2017-08-16T00:20:24.756Z,9.85
2017-08-16T00:22:51.505Z,10.65
2017-08-16T00:25:18.258Z,12.10
2017-08-16T00:27:44.924Z,10.38
2017-08-16T00:30:11.590Z,11.40
2017-08-16T00:32:38.279Z,11.00
2017-08-16T00:35:04.963Z,12.55
2017-08-16T00:37:31.635Z,11.93
2017-08-16T00:39:58.396Z,10.95
2017-08-16T00:42:25.083Z,11.45
2017-08-16T00:44:51.740Z,12.48
2017-08-16T00:47:18.411Z,13.15
2017-08-16T00:49:45.077Z,11.15
2017-08-16T00:52:11.736Z,10.80
2017-08-16T00:54:38.399Z,11.75
2017-08-16T00:57:05.087Z,11.85
2017-08-16T00:59:31.736Z,11.02
2017-08-16T01:01:58.380Z,11.65
2017-08-16T01:04:25.062Z,15.75
2017-08-16T01:06:51.835Z,17.92
2017-08-16T01:09:18.564Z,18.37
2017-08-16T01:11:45.306Z,16.15
2017-08-16T01:14:12.063Z,16.08
2017-08-16T01:16:38.802Z,13.10
2017-08-16T01:19:05.543Z,10.80
2017-08-16T01:21:32.206Z,11.52
2017-08-16T01:23:58.908Z,10.85
2017-08-16T01:26:25.599Z,13.55
2017-08-16T01:28:52.262Z,13.50
2017-08-16T01:31:18.911Z,13.40
2017-08-16T01:33:45.590Z,13.50
2017-08-16T01:36:12.259Z,15.10
2017-08-16T01:38:38.950Z,15.75
2017-08-16T01:41:05.616Z,16.62
2017-08-16T01:43:32.328Z,14.00
2017-08-16T01:45:59.086Z,14.98
2017-08-16T01:48:25.760Z,13.90
2017-08-16T01:50:52.407Z,14.15
2017-08-16T01:53:19.093Z,12.95
2017-08-16T01:55:45.779Z,13.60
2017-08-16T01:58:12.468Z,12.15
2017-08-16T02:00:39.120Z,12.23
2017-08-16T02:03:05.808Z,16.90
2017-08-16T02:05:32.495Z,15.05
2017-08-16T02:07:59.246Z,14.52
2017-08-16T02:10:25.931Z,13.00
2017-08-16T02:12:52.630Z,14.98
2017-08-16T02:15:19.298Z,13.75
2017-08-16T02:17:45.973Z,12.37
2017-08-16T02:20:12.627Z,12.45
2017-08-16T02:22:39.277Z,13.98
2017-08-16T02:25:05.939Z,13.55
2017-08-16T02:27:32.666Z,12.32
2017-08-16T02:29:59.395Z,12.73
2017-08-16T02:32:26.146Z,11.75
2017-08-16T02:34:52.892Z,10.38
2017-08-16T02:37:19.630Z,11.63
2017-08-16T02:39:46.375Z,11.75
2017-08-16T02:42:13.043Z,11.55
2017-08-16T02:44:39.751Z,12.23
2017-08-16T02:47:06.434Z,11.07
2017-08-16T02:49:33.115Z,11.68
2017-08-16T02:51:59.772Z,10.68
2017-08-16T02:54:26.444Z,11.20
2017-08-16T02:56:53.108Z,11.50
2017-08-16T02:59:19.756Z,13.80
2017-08-16T03:01:46.437Z,11.43
2017-08-16T03:04:13.175Z,12.15
2017-08-16T03:06:39.909Z,12.57
2017-08-16T03:09:06.571Z,10.95
2017-08-16T03:11:33.298Z,13.35
2017-08-16T03:13:59.967Z,12.55
2017-08-16T03:16:26.651Z,13.50
2017-08-16T03:18:53.401Z,12.05
2017-08-16T03:21:20.066Z,15.27
2017-08-16T03:23:46.781Z,13.80
2017-08-16T03:26:13.432Z,16.05
2017-08-16T03:28:40.166Z,16.08
2017-08-16T03:31:06.921Z,13.68
2017-08-16T03:33:33.655Z,14.10
2017-08-16T03:36:00.388Z,10.45
2017-08-16T03:38:27.123Z,10.13
2017-08-16T03:40:53.772Z,15.30
2017-08-16T03:43:20.438Z,11.05
2017-08-16T03:45:47.124Z,11.20
2017-08-16T03:48:13.769Z,9.35
2017-08-16T03:50:40.432Z,8.98
2017-08-16T03:53:07.168Z,9.70
2017-08-16T03:55:33.820Z,11.07
2017-08-16T03:58:00.463Z,9.07
2017-08-16T04:00:27.133Z,10.70
2017-08-16T04:02:53.799Z,10.70
2017-08-16T04:05:20.478Z,8.23
2017-08-16T04:07:47.315Z,12.13
2017-08-16T04:10:13.968Z,12.20
2017-08-16T04:12:40.631Z,13.00
2017-08-16T04:15:07.301Z,13.52
2017-08-16T04:17:33.983Z,14.13
2017-08-16T04:20:00.724Z,11.45
2017-08-16T04:22:27.448Z,13.32
2017-08-16T04:24:54.188Z,11.98
2017-08-16T04:27:20.934Z,12.25
2017-08-16T04:29:47.672Z,12.55
2017-08-16T04:32:14.328Z,12.85
2017-08-16T04:34:41.071Z,10.90
2017-08-16T04:37:07.811Z,11.93
2017-08-16T04:39:34.456Z,9.82
2017-08-16T04:42:01.196Z,11.43
2017-08-16T04:44:27.935Z,12.37
2017-08-16T04:46:54.656Z,10.95
2017-08-16T04:49:21.308Z,11.68
2017-08-16T04:51:47.976Z,10.43
2017-08-16T04:54:14.628Z,12.35
2017-08-16T04:56:41.290Z,10.55
2017-08-16T04:59:08.080Z,11.70
2017-08-16T05:01:34.755Z,12.95
2017-08-16T05:04:01.444Z,14.05
2017-08-16T05:06:28.503Z,13.10
2017-08-16T05:08:55.228Z,14.73
2017-08-16T05:11:21.987Z,11.82
2017-08-16T05:13:48.671Z,14.25
2017-08-16T05:16:15.320Z,14.15
2017-08-16T05:18:42.006Z,16.52
2017-08-16T05:21:08.733Z,15.10
2017-08-16T05:23:35.473Z,18.02
2017-08-16T05:26:02.337Z,19.33
2017-08-16T05:28:29.024Z,21.05
2017-08-16T05:30:55.691Z,16.70
2017-08-16T05:33:22.344Z,18.62
2017-08-16T05:35:49.075Z,16.60
2017-08-16T05:38:15.740Z,17.87
2017-08-16T05:40:42.392Z,16.33
2017-08-16T05:43:09.076Z,16.55
2017-08-16T05:45:35.724Z,13.05
2017-08-16T05:48:02.372Z,13.10
2017-08-16T05:50:29.040Z,14.25
2017-08-16T05:52:55.689Z,14.68
2017-08-16T05:55:22.410Z,12.40
2017-08-16T05:57:49.099Z,10.18
2017-08-16T06:00:15.767Z,9.60
2017-08-16T06:02:42.436Z,10.73
2017-08-16T06:05:09.104Z,15.00
2017-08-16T06:07:35.791Z,14.98
2017-08-16T06:10:02.459Z,13.62
2017-08-16T06:12:29.129Z,14.23
2017-08-16T06:14:55.794Z,11.93
2017-08-16T06:17:22.571Z,11.20
2017-08-16T06:19:49.292Z,10.77
2017-08-16T06:22:16.036Z,10.38
2017-08-16T06:24:42.703Z,10.10
2017-08-16T06:27:09.392Z,10.85
2017-08-16T06:29:36.070Z,10.05
2017-08-16T06:32:02.734Z,9.82
2017-08-16T06:34:29.397Z,9.80
2017-08-16T06:36:56.107Z,10.90
2017-08-16T06:39:22.744Z,10.63
2017-08-16T06:41:49.427Z,9.25
2017-08-16T06:44:16.072Z,9.43
2017-08-16T06:46:42.837Z,10.35
2017-08-16T06:49:09.599Z,10.18
2017-08-16T06:51:36.249Z,9.52
2017-08-16T06:54:02.956Z,8.00
2017-08-16T06:56:29.635Z,9.00
2017-08-16T06:58:56.284Z,9.38
2017-08-16T07:01:22.951Z,10.65
2017-08-16T07:03:49.719Z,9.43
2017-08-16T07:06:16.479Z,8.63
2017-08-16T07:08:43.129Z,10.07
2017-08-16T07:11:09.803Z,8.43
2017-08-16T07:13:36.479Z,7.47
2017-08-16T07:16:03.121Z,8.77
2017-08-16T07:18:29.861Z,8.00
2017-08-16T07:20:56.530Z,7.30
2017-08-16T07:23:23.258Z,8.13
2017-08-16T07:25:49.998Z,7.60
2017-08-16T07:28:16.738Z,9.07
2017-08-16T07:30:43.478Z,7.47
2017-08-16T07:33:10.224Z,6.60
2017-08-16T07:35:36.882Z,7.78
2017-08-16T07:38:03.594Z,7.80
2017-08-16T07:40:30.344Z,7.00
2017-08-16T07:42:57.082Z,6.03
2017-08-16T07:45:23.728Z,7.12
2017-08-16T07:47:50.393Z,7.85
2017-08-16T07:50:17.088Z,6.93
2017-08-16T07:52:43.744Z,7.35
2017-08-16T07:55:10.479Z,6.18
2017-08-16T07:57:37.139Z,6.40
2017-08-16T08:00:03.799Z,6.65
2017-08-16T08:02:30.488Z,6.45
2017-08-16T08:04:57.248Z,5.47
2017-08-16T08:07:23.912Z,6.93
2017-08-16T08:09:50.572Z,6.28
2017-08-16T08:12:17.244Z,6.28
2017-08-16T08:14:43.905Z,5.78
2017-08-16T08:17:10.568Z,7.28
2017-08-16T08:19:37.212Z,6.32
2017-08-16T08:22:03.870Z,5.75
2017-08-16T08:24:30.563Z,5.82
2017-08-16T08:26:57.218Z,5.60
2017-08-16T08:29:23.938Z,6.30
2017-08-16T08:31:50.668Z,5.87
2017-08-16T08:34:17.409Z,5.65
2017-08-16T08:36:44.048Z,5.55
2017-08-16T08:39:10.720Z,6.57
2017-08-16T08:41:37.356Z,5.70
2017-08-16T08:44:03.996Z,5.75
2017-08-16T08:46:30.660Z,5.78
2017-08-16T08:48:57.313Z,5.82
2017-08-16T08:51:23.956Z,5.72
2017-08-16T08:53:50.743Z,4.57
2017-08-16T08:56:17.487Z,4.80
2017-08-16T08:58:44.128Z,5.12
2017-08-16T09:01:10.784Z,5.32
2017-08-16T09:03:37.489Z,4.78
2017-08-16T09:06:04.160Z,4.28
2017-08-16T09:08:30.877Z,5.05
2017-08-16T09:10:57.526Z,6.12
2017-08-16T09:13:24.187Z,6.50
2017-08-16T09:15:50.898Z,5.75
2017-08-16T09:18:17.540Z,5.57
2017-08-16T09:20:44.290Z,5.90
2017-08-16T09:23:11.018Z,5.72
2017-08-16T09:25:37.680Z,4.60
2017-08-16T09:28:04.339Z,6.25
2017-08-16T09:30:31.043Z,6.35
2017-08-16T09:32:57.778Z,6.43
2017-08-16T09:35:24.421Z,7.25
2017-08-16T09:37:51.095Z,4.80
2017-08-16T09:40:17.806Z,6.10
2017-08-16T09:42:44.553Z,5.40
2017-08-16T09:45:11.218Z,5.82
2017-08-16T09:47:37.884Z,5.18
2017-08-16T09:50:04.558Z,4.45
2017-08-16T09:52:31.235Z,4.45
2017-08-16T09:54:57.898Z,4.28
2017-08-16T09:57:24.545Z,4.68
2017-08-16T09:59:51.331Z,5.55
2017-08-16T10:02:17.972Z,5.07
2017-08-16T10:04:44.621Z,5.35
2017-08-16T10:07:11.342Z,4.10
2017-08-16T10:09:38.072Z,4.93
2017-08-16T10:12:04.730Z,3.92
2017-08-16T10:14:31.456Z,3.83
2017-08-16T10:16:58.104Z,4.15
2017-08-16T10:19:24.763Z,4.87
2017-08-16T10:21:51.425Z,4.72
2017-08-16T10:24:18.087Z,4.30
2017-08-16T10:26:44.742Z,3.70
2017-08-16T10:29:11.508Z,3.35
2017-08-16T10:31:38.242Z,3.70
2017-08-16T10:34:04.972Z,3.75
2017-08-16T10:36:31.646Z,4.03
2017-08-16T10:38:58.293Z,3.85
2017-08-16T10:41:24.954Z,3.83
2017-08-16T10:43:51.648Z,3.67
2017-08-16T10:46:18.379Z,3.65
2017-08-16T10:48:45.034Z,3.00
2017-08-16T10:51:11.759Z,2.65
2017-08-16T10:53:38.501Z,3.22
2017-08-16T10:56:05.232Z,2.62
2017-08-16T10:58:31.897Z,3.42
2017-08-16T11:00:58.555Z,3.33
2017-08-16T11:03:25.252Z,4.25
2017-08-16T11:05:51.923Z,4.50
2017-08-16T11:08:18.656Z,4.62
2017-08-16T11:10:45.382Z,4.07
2017-08-16T11:13:12.135Z,4.10
2017-08-16T11:15:38.869Z,3.47
2017-08-16T11:18:05.512Z,3.65
2017-08-16T11:20:32.171Z,3.92
2017-08-16T11:22:58.899Z,3.92
2017-08-16T11:25:25.549Z,3.72
2017-08-16T11:27:52.280Z,3.30
2017-08-16T11:30:18.932Z,3.28
2017-08-16T11:32:45.646Z,4.03
2017-08-16T11:35:12.300Z,3.45
2017-08-16T11:37:39.038Z,3.42
2017-08-16T11:40:05.764Z,2.83
2017-08-16T11:42:32.434Z,3.90
2017-08-16T11:44:59.141Z,3.62
2017-08-16T11:47:25.795Z,2.70
2017-08-16T11:49:52.523Z,3.60
2017-08-16T11:52:19.187Z,2.42
2017-08-16T11:54:45.923Z,2.50
2017-08-16T11:57:12.612Z,3.78
2017-08-16T11:59:39.264Z,2.40
2017-08-16T12:02:06.031Z,2.85
2017-08-16T12:04:32.719Z,2.10
2017-08-16T12:06:59.376Z,1.98
2017-08-16T12:09:26.062Z,2.20
2017-08-16T12:11:52.746Z,1.80
2017-08-16T12:14:19.399Z,1.92
2017-08-16T12:16:46.061Z,2.40
2017-08-16T12:19:13.270Z,1.80
2017-08-16T12:21:39.988Z,2.25
2017-08-16T12:24:06.719Z,1.90
2017-08-16T12:26:33.440Z,2.43
2017-08-16T12:29:00.107Z,1.97
2017-08-16T12:31:26.748Z,1.53
2017-08-16T12:33:53.478Z,1.77
2017-08-16T12:36:20.135Z,1.73
2017-08-16T12:38:46.840Z,1.67
2017-08-16T12:41:13.518Z,1.97
2017-08-16T12:43:40.220Z,1.27
2017-08-16T12:46:06.878Z,1.70
2017-08-16T12:48:33.554Z,1.83
2017-08-16T12:51:00.251Z,1.80
2017-08-16T12:53:27.002Z,1.37
2017-08-16T12:55:53.765Z,1.90
2017-08-16T12:58:20.484Z,1.30
2017-08-16T13:00:47.219Z,2.10
2017-08-16T13:03:13.944Z,1.67
2017-08-16T13:05:40.597Z,1.70
2017-08-16T13:08:07.263Z,1.73
2017-08-16T13:10:33.968Z,1.83
2017-08-16T13:13:00.728Z,1.90
2017-08-16T13:15:27.388Z,1.83
2017-08-16T13:17:54.064Z,1.70
2017-08-16T13:20:20.703Z,1.30
2017-08-16T13:22:47.348Z,1.47
2017-08-16T13:25:14.011Z,1.37
2017-08-16T13:27:40.755Z,1.83
2017-08-16T13:30:07.503Z,2.00
2017-08-16T13:32:34.235Z,1.17
2017-08-16T13:35:00.887Z,1.40
2017-08-16T13:37:27.632Z,1.60
2017-08-16T13:39:54.311Z,1.50
2017-08-16T13:42:21.007Z,1.87
2017-08-16T13:44:47.732Z,1.60
2017-08-16T13:47:14.483Z,1.47
2017-08-16T13:49:41.225Z,1.47
2017-08-16T13:52:07.887Z,1.27
2017-08-16T13:54:34.567Z,1.50
2017-08-16T13:57:01.211Z,1.23
2017-08-16T13:59:27.882Z,1.53
2017-08-16T14:01:54.554Z,1.70
2017-08-16T14:04:21.219Z,1.50
2017-08-16T14:06:47.878Z,1.70
2017-08-16T14:09:14.537Z,1.37
2017-08-16T14:11:41.386Z,1.53
2017-08-16T14:14:08.134Z,1.27
2017-08-16T14:16:34.800Z,1.87
2017-08-16T14:19:01.506Z,1.60
2017-08-16T14:21:28.163Z,1.73
2017-08-16T14:23:54.860Z,2.10
2017-08-16T14:26:22.003Z,1.97
2017-08-16T14:28:48.682Z,1.73
2017-08-16T14:31:15.431Z,1.50
2017-08-16T14:33:42.068Z,1.40
2017-08-16T14:36:08.802Z,1.57
2017-08-16T14:38:35.483Z,1.60
2017-08-16T14:41:02.147Z,1.40
2017-08-16T14:43:28.788Z,1.40
2017-08-16T14:45:55.445Z,1.80
2017-08-16T14:48:22.088Z,1.60
2017-08-16T14:50:48.838Z,1.30
2017-08-16T14:53:15.587Z,1.73
2017-08-16T14:55:42.330Z,1.50
2017-08-16T14:58:08.982Z,2.00
2017-08-16T15:00:35.659Z,2.43
2017-08-16T15:03:02.340Z,2.43
2017-08-16T15:05:28.984Z,1.23
2017-08-16T15:07:55.712Z,2.00
2017-08-16T15:10:22.372Z,1.20
2017-08-16T15:12:49.111Z,1.90
2017-08-16T15:15:15.790Z,1.43
2017-08-16T15:17:42.433Z,1.70
2017-08-16T15:20:09.091Z,1.30
2017-08-16T15:22:35.747Z,2.00
2017-08-16T15:25:02.388Z,1.37
2017-08-16T15:27:29.027Z,1.57
2017-08-16T15:29:56.018Z,1.20
2017-08-16T15:32:22.670Z,1.40
2017-08-16T15:34:49.466Z,1.63
2017-08-16T15:37:16.131Z,1.57
2017-08-16T15:39:42.774Z,1.70
2017-08-16T15:42:09.413Z,1.30
2017-08-16T15:44:36.087Z,1.63
2017-08-16T15:47:02.732Z,1.43
2017-08-16T15:49:29.393Z,2.53
2017-08-16T15:51:56.146Z,1.40
2017-08-16T15:54:22.808Z,1.50
2017-08-16T15:56:49.526Z,1.77
2017-08-16T15:59:16.251Z,1.83
2017-08-16T16:01:42.892Z,1.83
2017-08-16T16:04:09.636Z,1.23
2017-08-16T16:06:36.680Z,1.40
2017-08-16T16:09:03.320Z,1.10
2017-08-16T16:11:29.961Z,2.00
2017-08-16T16:13:56.620Z,1.50
2017-08-16T16:16:23.278Z,1.63
2017-08-16T16:18:49.947Z,1.63
2017-08-16T16:21:16.750Z,2.03
2017-08-16T16:23:43.468Z,2.07
2017-08-16T16:26:10.123Z,1.70
2017-08-16T16:28:36.798Z,2.00
2017-08-16T16:31:03.458Z,2.17
2017-08-16T16:33:30.146Z,2.37
2017-08-16T16:35:56.809Z,2.37
2017-08-16T16:38:23.515Z,2.13
2017-08-16T16:40:50.175Z,2.00
2017-08-16T16:43:16.846Z,2.00
2017-08-16T16:45:43.503Z,1.80
2017-08-16T16:48:10.276Z,2.23
2017-08-16T16:50:36.963Z,1.90
2017-08-16T16:53:03.656Z,2.20
2017-08-16T16:55:30.308Z,2.37
2017-08-16T16:57:57.025Z,2.20
2017-08-16T17:00:23.782Z,2.30
2017-08-16T17:02:50.436Z,2.05
2017-08-16T17:05:17.149Z,2.40
2017-08-16T17:07:43.808Z,2.60
2017-08-16T17:10:10.546Z,2.37
2017-08-16T17:12:37.221Z,2.83
2017-08-16T17:15:03.881Z,2.00
2017-08-16T17:17:30.552Z,2.42
2017-08-16T17:19:57.217Z,2.60
2017-08-16T17:22:23.947Z,2.58
2017-08-16T17:24:50.680Z,2.05
2017-08-16T17:27:17.420Z,2.45
2017-08-16T17:29:44.069Z,2.70
2017-08-16T17:32:10.730Z,2.90
2017-08-16T17:34:37.401Z,2.53
2017-08-16T17:37:04.053Z,2.70
2017-08-16T17:39:30.718Z,3.47
2017-08-16T17:41:57.473Z,3.10
2017-08-16T17:44:24.203Z,2.75
2017-08-16T17:46:50.852Z,3.28
2017-08-16T17:49:17.530Z,2.70
2017-08-16T17:51:44.219Z,2.62
2017-08-16T17:54:10.970Z,3.08
2017-08-16T17:56:37.636Z,2.60
2017-08-16T17:59:04.328Z,3.83
2017-08-16T18:01:31.002Z,3.20
2017-08-16T18:03:57.687Z,3.40
2017-08-16T18:06:24.370Z,3.92
2017-08-16T18:08:51.088Z,2.80
2017-08-16T18:11:17.768Z,3.47
2017-08-16T18:13:44.435Z,2.70
2017-08-16T18:16:11.131Z,3.80
2017-08-16T18:18:37.811Z,3.05
2017-08-16T18:21:04.461Z,3.60
2017-08-16T18:23:31.129Z,3.20
2017-08-16T18:25:57.784Z,3.20
2017-08-16T18:28:24.508Z,4.00
2017-08-16T18:30:51.145Z,3.37
2017-08-16T18:33:17.830Z,4.20
2017-08-16T18:35:44.476Z,4.20
2017-08-16T18:38:11.139Z,3.65
2017-08-16T18:40:37.833Z,4.15
2017-08-16T18:43:04.496Z,3.67
2017-08-16T18:45:31.167Z,3.78
2017-08-16T18:47:57.850Z,3.70
2017-08-16T18:50:24.511Z,3.95
2017-08-16T18:52:51.161Z,4.47
2017-08-16T18:55:17.868Z,3.58
2017-08-16T18:57:44.520Z,4.80
2017-08-16T19:00:11.228Z,4.00
2017-08-16T19:02:37.883Z,3.87
2017-08-16T19:05:04.528Z,3.65
2017-08-16T19:07:31.266Z,3.95
2017-08-16T19:09:57.943Z,3.72
2017-08-16T19:12:24.633Z,4.55
2017-08-16T19:14:51.291Z,4.15
2017-08-16T19:17:17.962Z,3.75
2017-08-16T19:19:44.611Z,3.95
2017-08-16T19:22:11.268Z,4.18
2017-08-16T19:24:37.950Z,3.70
2017-08-16T19:27:04.674Z,4.03
2017-08-16T19:29:31.331Z,3.67
2017-08-16T19:31:58.011Z,3.25
2017-08-16T19:34:24.666Z,3.92
2017-08-16T19:36:51.308Z,4.30
2017-08-16T19:39:17.974Z,5.78
2017-08-16T19:41:45.537Z,6.70
2017-08-16T19:44:12.203Z,4.78
2017-08-16T19:46:38.923Z,4.65
2017-08-16T19:49:05.568Z,4.78
2017-08-16T19:51:32.246Z,3.50
2017-08-16T19:53:58.943Z,4.40
2017-08-16T19:56:25.580Z,4.10
2017-08-16T19:58:52.216Z,3.65
2017-08-16T20:01:18.891Z,4.90
2017-08-16T20:03:45.604Z,4.07
2017-08-16T20:06:12.335Z,4.28
2017-08-16T20:08:39.006Z,3.90
2017-08-16T20:11:05.661Z,3.87
2017-08-16T20:13:32.362Z,3.85
2017-08-16T20:15:59.039Z,4.85
2017-08-16T20:18:25.742Z,4.70
2017-08-16T20:20:52.482Z,4.60
2017-08-16T20:23:19.216Z,5.95
2017-08-16T20:25:45.866Z,5.68
2017-08-16T20:28:12.531Z,5.53
2017-08-16T20:30:39.232Z,4.65
2017-08-16T20:33:05.871Z,6.15
2017-08-16T20:35:32.513Z,4.25
2017-08-16T20:37:59.173Z,5.85
2017-08-16T20:40:25.818Z,5.07
2017-08-16T20:42:52.538Z,5.40
2017-08-16T20:45:19.214Z,5.47
2017-08-16T20:47:45.919Z,6.37
2017-08-16T20:50:12.667Z,5.03
2017-08-16T20:52:39.336Z,4.80
2017-08-16T20:55:06.037Z,4.80
2017-08-16T20:57:32.776Z,5.60
2017-08-16T20:59:59.436Z,4.85
2017-08-16T21:02:26.094Z,4.90
2017-08-16T21:04:52.755Z,5.35
2017-08-16T21:07:19.435Z,6.20
2017-08-16T21:09:46.086Z,5.22
2017-08-16T21:12:12.823Z,5.62
2017-08-16T21:14:39.502Z,6.07
2017-08-16T21:17:06.189Z,7.10
2017-08-16T21:19:32.948Z,8.35
2017-08-16T21:21:59.618Z,5.20
2017-08-16T21:24:26.315Z,6.78
2017-08-16T21:26:53.052Z,7.12
2017-08-16T21:29:19.731Z,6.55
2017-08-16T21:31:46.398Z,7.12
2017-08-16T21:34:13.059Z,7.22
2017-08-16T21:36:39.813Z,6.20
2017-08-16T21:39:06.459Z,6.15
2017-08-16T21:41:33.206Z,5.45
2017-08-16T21:43:59.932Z,4.75
2017-08-16T21:46:26.576Z,5.57
2017-08-16T21:48:53.234Z,5.00
2017-08-16T21:51:19.958Z,5.32
2017-08-16T21:53:46.600Z,5.45
2017-08-16T21:56:13.260Z,5.70
2017-08-16T21:58:39.934Z,5.12
2017-08-16T22:01:06.626Z,4.95
2017-08-16T22:03:33.363Z,5.43
2017-08-16T22:06:00.040Z,5.25
2017-08-16T22:08:26.699Z,6.72
2017-08-16T22:10:53.352Z,6.15
2017-08-16T22:13:20.017Z,6.60
2017-08-16T22:15:46.674Z,6.07
2017-08-16T22:18:13.421Z,7.87
2017-08-16T22:20:40.132Z,6.57
2017-08-16T22:23:06.791Z,6.82
2017-08-16T22:25:33.437Z,6.80
2017-08-16T22:28:00.152Z,6.70
2017-08-16T22:30:26.811Z,6.82
2017-08-16T22:32:53.528Z,6.60
2017-08-16T22:35:20.193Z,6.75
2017-08-16T22:37:46.837Z,6.43
2017-08-16T22:40:13.552Z,6.30
2017-08-16T22:42:40.208Z,7.15
2017-08-16T22:45:06.952Z,8.02
2017-08-16T22:47:33.680Z,7.10
2017-08-16T22:50:00.431Z,6.87
2017-08-16T22:52:27.103Z,12.48
2017-08-16T22:54:53.768Z,7.50
2017-08-16T22:57:20.520Z,6.72
2017-08-16T22:59:47.176Z,6.22
2017-08-16T23:02:13.922Z,6.97
2017-08-16T23:04:40.667Z,6.43
2017-08-16T23:07:07.326Z,7.47
2017-08-16T23:09:34.042Z,7.00
2017-08-16T23:12:00.720Z,8.68
2017-08-16T23:14:27.368Z,7.60
2017-08-16T23:16:54.064Z,7.10
2017-08-16T23:19:20.747Z,7.45
2017-08-16T23:21:47.391Z,6.62
2017-08-16T23:24:14.080Z,7.55
2017-08-16T23:26:40.827Z,6.35
2017-08-16T23:29:07.468Z,6.50
2017-08-16T23:31:34.122Z,6.40
2017-08-16T23:34:00.798Z,6.57
2017-08-16T23:36:27.454Z,6.75
2017-08-16T23:38:54.228Z,7.78
2017-08-16T23:41:20.980Z,7.70
2017-08-16T23:43:47.712Z,7.05
2017-08-16T23:46:14.371Z,6.05
2017-08-16T23:48:41.047Z,6.85
2017-08-16T23:51:07.697Z,7.22
2017-08-16T23:53:34.339Z,5.95
2017-08-16T23:56:01.107Z,7.15
2017-08-16T23:58:27.854Z,7.30
